createdAt,value
2023-01-23T00:02:05.811Z,101730.50
2023-01-23T00:04:32.272Z,101737.28
2023-01-23T00:06:58.678Z,101735.75
2023-01-23T00:09:25.029Z,101741.06
2023-01-23T00:11:51.362Z,101740.09
2023-01-23T00:14:18.322Z,101740.28
2023-01-23T00:16:44.721Z,101742.16
2023-01-23T00:19:11.339Z,101743.00
2023-01-23T00:21:37.740Z,101731.44
2023-01-23T00:24:04.503Z,101729.28
2023-01-23T00:26:32.950Z,101737.94
2023-01-23T00:28:59.945Z,101737.19
2023-01-23T00:31:31.942Z,101741.31
2023-01-23T00:34:02.392Z,101738.78
2023-01-23T00:36:31.650Z,101736.31
2023-01-23T00:38:58.093Z,101743.09
2023-01-23T00:41:24.571Z,101743.31
2023-01-23T00:43:52.183Z,101742.66
2023-01-23T00:46:22.542Z,101740.50
2023-01-23T00:48:49.395Z,101737.31
2023-01-23T00:51:15.944Z,101739.97
2023-01-23T00:53:42.875Z,101744.38
2023-01-23T00:56:09.321Z,101738.25
2023-01-23T00:58:35.842Z,101740.03
2023-01-23T01:01:02.271Z,101742.38
2023-01-23T01:03:28.692Z,101747.63
2023-01-23T01:05:55.198Z,101750.97
2023-01-23T01:08:21.614Z,101742.22
2023-01-23T01:10:48.047Z,101742.53
2023-01-23T01:13:16.825Z,101737.34
2023-01-23T01:15:43.256Z,101749.31
2023-01-23T01:18:09.735Z,101753.56
2023-01-23T01:20:36.118Z,101759.56
2023-01-23T01:23:02.977Z,101760.38
2023-01-23T01:25:30.384Z,101755.53
2023-01-23T01:27:56.722Z,101754.72
2023-01-23T01:30:25.696Z,101763.50
2023-01-23T01:32:52.083Z,101759.03
2023-01-23T01:35:18.574Z,101760.47
2023-01-23T01:37:45.033Z,101762.72
2023-01-23T01:40:15.479Z,101772.22
2023-01-23T01:42:44.969Z,101776.66
2023-01-23T01:45:54.740Z,101772.00
2023-01-23T01:48:25.535Z,101782.03
2023-01-23T01:50:53.284Z,101778.81
2023-01-23T01:53:25.066Z,101774.56
2023-01-23T01:55:51.535Z,101775.78
2023-01-23T01:58:18.373Z,101767.72
2023-01-23T02:00:44.978Z,101773.69
2023-01-23T02:03:11.437Z,101771.28
2023-01-23T02:05:44.791Z,101768.63
2023-01-23T02:08:21.560Z,101777.00
2023-01-23T02:10:48.548Z,101775.41
2023-01-23T02:13:28.425Z,101774.69
2023-01-23T02:15:54.867Z,101777.78
2023-01-23T02:18:21.957Z,101776.00
2023-01-23T02:20:51.917Z,101773.13
2023-01-23T02:23:47.693Z,101785.38
2023-01-23T02:26:18.106Z,101780.19
2023-01-23T02:28:47.746Z,101780.59
2023-01-23T02:31:15.383Z,101785.72
2023-01-23T02:33:53.750Z,101787.81
2023-01-23T02:36:23.946Z,101789.59
2023-01-23T02:38:55.701Z,101786.19
2023-01-23T02:41:35.947Z,101787.47
2023-01-23T02:44:08.993Z,101796.84
2023-01-23T02:46:35.374Z,101793.34
2023-01-23T02:49:02.703Z,101787.09
2023-01-23T02:51:29.094Z,101786.03
2023-01-23T02:53:55.522Z,101786.06
2023-01-23T02:56:21.946Z,101788.13
2023-01-23T02:59:07.091Z,101787.19
2023-01-23T03:01:35.664Z,101781.09
2023-01-23T03:04:03.586Z,101784.63
2023-01-23T03:06:36.047Z,101790.47
2023-01-23T03:09:05.576Z,101790.31
2023-01-23T03:11:32.354Z,101795.53
2023-01-23T03:13:58.747Z,101799.28
2023-01-23T03:16:25.240Z,101797.66
2023-01-23T03:18:54.759Z,101794.88
2023-01-23T03:21:21.572Z,101797.56
2023-01-23T03:23:48.285Z,101791.72
2023-01-23T03:26:15.443Z,101789.03
2023-01-23T03:29:00.473Z,101800.28
2023-01-23T03:31:26.925Z,101800.41
2023-01-23T03:33:53.444Z,101804.88
2023-01-23T03:36:20.984Z,101809.31
2023-01-23T03:39:05.794Z,101807.75
2023-01-23T03:41:32.249Z,101809.81
2023-01-23T03:43:58.590Z,101808.56
2023-01-23T03:46:25.065Z,101815.28
2023-01-23T03:48:51.516Z,101812.16
2023-01-23T03:51:18.006Z,101810.63
2023-01-23T03:53:44.448Z,101811.59
2023-01-23T03:56:10.901Z,101810.59
2023-01-23T03:58:37.247Z,101815.84
2023-01-23T04:01:06.883Z,101824.31
2023-01-23T04:03:33.313Z,101818.59
2023-01-23T04:06:00.013Z,101817.63
2023-01-23T04:08:26.531Z,101811.81
2023-01-23T04:11:01.471Z,101818.94
2023-01-23T04:13:27.871Z,101821.16
2023-01-23T04:15:54.349Z,101821.94
2023-01-23T04:18:20.692Z,101815.78
2023-01-23T04:20:47.629Z,101813.25
2023-01-23T04:23:14.040Z,101813.97
2023-01-23T04:25:40.437Z,101813.03
2023-01-23T04:28:06.837Z,101815.34
2023-01-23T04:30:33.367Z,101809.69
2023-01-23T04:32:59.925Z,101808.66
2023-01-23T04:35:26.442Z,101818.34
2023-01-23T04:37:52.858Z,101810.84
2023-01-23T04:40:19.891Z,101811.75
2023-01-23T04:42:46.445Z,101820.59
2023-01-23T04:45:12.865Z,101813.78
2023-01-23T04:47:39.426Z,101820.97
2023-01-23T04:50:06.077Z,101815.94
2023-01-23T04:52:32.414Z,101821.47
2023-01-23T04:54:58.890Z,101816.72
2023-01-23T04:57:25.291Z,101804.41
2023-01-23T04:59:51.674Z,101805.66
2023-01-23T05:02:18.060Z,101816.16
2023-01-23T05:04:44.924Z,101797.47
2023-01-23T05:07:12.287Z,101793.56
2023-01-23T05:09:39.413Z,101802.09
2023-01-23T05:12:06.418Z,101792.94
2023-01-23T05:14:33.052Z,101803.97
2023-01-23T05:16:59.508Z,101801.69
2023-01-23T05:19:25.876Z,101816.84
2023-01-23T05:21:52.251Z,101806.91
2023-01-23T05:24:18.589Z,101818.56
2023-01-23T05:26:45.038Z,101819.84
2023-01-23T05:29:11.513Z,101823.31
2023-01-23T05:31:38.071Z,101833.59
2023-01-23T05:34:04.599Z,101831.38
2023-01-23T05:36:31.049Z,101833.22
2023-01-23T05:38:57.661Z,101848.34
2023-01-23T05:41:25.682Z,101847.03
2023-01-23T05:43:52.141Z,101846.72
2023-01-23T05:46:18.566Z,101842.88
2023-01-23T05:48:49.138Z,101852.03
2023-01-23T05:51:17.160Z,101852.00
2023-01-23T05:53:43.815Z,101851.88
2023-01-23T05:56:10.389Z,101849.88
2023-01-23T05:58:36.774Z,101862.03
2023-01-23T06:01:04.118Z,101867.06
2023-01-23T06:03:30.762Z,101871.63
2023-01-23T06:05:57.128Z,101864.03
2023-01-23T06:08:23.579Z,101864.53
2023-01-23T06:10:50.754Z,101872.44
2023-01-23T06:13:17.169Z,101873.56
2023-01-23T06:15:43.615Z,101867.84
2023-01-23T06:18:10.134Z,101861.94
2023-01-23T06:20:36.518Z,101870.19
2023-01-23T06:23:03.185Z,101869.66
2023-01-23T06:25:29.538Z,101880.19
2023-01-23T06:27:55.874Z,101874.44
2023-01-23T06:30:22.382Z,101876.00
2023-01-23T06:32:49.030Z,101879.19
2023-01-23T06:35:15.531Z,101882.38
2023-01-23T06:37:42.247Z,101876.00
2023-01-23T06:40:13.143Z,101876.78
2023-01-23T06:42:43.091Z,101878.69
2023-01-23T06:45:10.723Z,101882.69
2023-01-23T06:47:38.025Z,101881.00
2023-01-23T06:50:05.059Z,101888.50
2023-01-23T06:52:31.531Z,101888.03
2023-01-23T06:54:57.903Z,101884.44
2023-01-23T06:57:24.301Z,101890.31
2023-01-23T06:59:50.681Z,101885.75
2023-01-23T07:02:17.094Z,101892.75
2023-01-23T07:04:43.461Z,101897.00
2023-01-23T07:07:09.966Z,101899.94
2023-01-23T07:09:36.494Z,101898.97
2023-01-23T07:12:03.596Z,101905.56
2023-01-23T07:14:29.954Z,101908.19
2023-01-23T07:16:56.403Z,101902.03
2023-01-23T07:19:22.814Z,101916.44
2023-01-23T07:21:49.353Z,101922.56
2023-01-23T07:24:15.839Z,101925.38
2023-01-23T07:26:42.213Z,101917.59
2023-01-23T07:29:11.578Z,101928.97
2023-01-23T07:31:38.220Z,101924.38
2023-01-23T07:34:04.660Z,101918.25
2023-01-23T07:36:31.093Z,101919.13
2023-01-23T07:38:58.956Z,101925.38
2023-01-23T07:41:25.715Z,101929.06
2023-01-23T07:43:52.286Z,101937.75
2023-01-23T07:46:18.874Z,101945.22
2023-01-23T07:48:45.346Z,101952.28
2023-01-23T07:51:11.920Z,101947.81
2023-01-23T07:53:38.478Z,101957.91
2023-01-23T07:56:05.913Z,101960.09
2023-01-23T07:58:32.715Z,101961.16
2023-01-23T08:00:59.194Z,101972.63
2023-01-23T08:03:28.884Z,101969.13
2023-01-23T08:05:55.310Z,101965.66
2023-01-23T08:08:21.698Z,101976.00
2023-01-23T08:10:48.110Z,101977.06
2023-01-23T08:13:14.583Z,101980.28
2023-01-23T08:15:40.984Z,101987.69
2023-01-23T08:18:07.450Z,101988.03
2023-01-23T08:20:34.014Z,101994.31
2023-01-23T08:23:02.043Z,101985.16
2023-01-23T08:25:28.467Z,101983.81
2023-01-23T08:27:54.813Z,101982.88
2023-01-23T08:30:21.633Z,101986.31
2023-01-23T08:32:48.219Z,101987.81
2023-01-23T08:35:15.182Z,101983.13
2023-01-23T08:37:42.293Z,101990.34
2023-01-23T08:40:09.532Z,101994.81
2023-01-23T08:42:36.013Z,101986.16
2023-01-23T08:45:02.374Z,101986.47
2023-01-23T08:47:28.872Z,101991.06
2023-01-23T08:49:55.276Z,101991.00
2023-01-23T08:52:21.611Z,101989.13
2023-01-23T08:54:48.027Z,101988.00
2023-01-23T08:57:14.449Z,101996.41
2023-01-23T08:59:42.611Z,101993.63
2023-01-23T09:02:12.643Z,101990.22
2023-01-23T09:04:39.261Z,101988.94
2023-01-23T09:07:05.625Z,101990.91
2023-01-23T09:09:32.061Z,101992.53
2023-01-23T09:11:58.453Z,101992.00
2023-01-23T09:14:24.815Z,101998.94
2023-01-23T09:16:51.365Z,101989.19
2023-01-23T09:19:17.777Z,101992.66
2023-01-23T09:21:44.558Z,101992.66
2023-01-23T09:24:10.958Z,101993.53
2023-01-23T09:26:37.611Z,101999.09
2023-01-23T09:29:04.009Z,102013.00
2023-01-23T09:31:30.818Z,102011.75
2023-01-23T09:33:57.686Z,102008.53
2023-01-23T09:36:41.299Z,102023.38
2023-01-23T09:39:07.909Z,102012.72
2023-01-23T09:41:34.401Z,102014.25
2023-01-23T09:44:07.361Z,102013.03
2023-01-23T09:47:02.445Z,102020.16
2023-01-23T09:49:41.335Z,102013.31
2023-01-23T09:52:13.128Z,102016.97
2023-01-23T09:54:48.890Z,102016.06
2023-01-23T09:57:15.242Z,102011.56
2023-01-23T10:00:00.206Z,102012.97
2023-01-23T10:02:28.209Z,102020.13
2023-01-23T10:04:58.060Z,102022.56
2023-01-23T10:07:43.810Z,102019.66
2023-01-23T10:10:45.404Z,102022.50
2023-01-23T10:13:48.530Z,102022.25
2023-01-23T10:16:14.877Z,102019.13
2023-01-23T10:18:54.282Z,102018.22
2023-01-23T10:21:38.901Z,102019.97
2023-01-23T10:24:26.983Z,102017.34
2023-01-23T10:26:58.294Z,102021.88
2023-01-23T10:29:38.831Z,102034.00
2023-01-23T10:32:20.877Z,102026.53
2023-01-23T10:34:55.124Z,102017.59
2023-01-23T10:37:40.549Z,102015.25
2023-01-23T10:40:12.592Z,102024.91
2023-01-23T10:42:38.968Z,102027.19
2023-01-23T10:45:06.971Z,102016.56
2023-01-23T10:47:44.056Z,102017.53
2023-01-23T10:50:11.528Z,102020.19
2023-01-23T10:52:43.338Z,102024.25
2023-01-23T10:55:19.639Z,102021.78
2023-01-23T10:57:49.012Z,102023.06
2023-01-23T11:00:27.567Z,102013.34
2023-01-23T11:02:54.075Z,102007.91
2023-01-23T11:05:46.905Z,102013.41
2023-01-23T11:08:25.994Z,102006.94
2023-01-23T11:10:52.947Z,102006.50
2023-01-23T11:13:29.718Z,102002.28
2023-01-23T11:15:56.910Z,102009.72
2023-01-23T11:18:33.818Z,102003.69
2023-01-23T11:21:01.251Z,102007.91
2023-01-23T11:23:29.286Z,102012.91
2023-01-23T11:25:55.883Z,102000.66
2023-01-23T11:28:47.655Z,101995.72
2023-01-23T11:31:18.831Z,102001.22
2023-01-23T11:33:58.491Z,101994.41
2023-01-23T11:36:38.400Z,101995.50
2023-01-23T11:39:26.629Z,101988.38
2023-01-23T11:41:53.070Z,101987.19
2023-01-23T11:44:23.071Z,101992.16
2023-01-23T11:46:49.848Z,101987.47
2023-01-23T11:49:25.149Z,101992.50
2023-01-23T11:52:15.844Z,101979.00
2023-01-23T11:55:01.075Z,101975.69
2023-01-23T11:57:48.401Z,101973.81
2023-01-23T12:00:24.642Z,101993.53
2023-01-23T12:03:00.163Z,101984.94
2023-01-23T12:06:03.522Z,101976.31
2023-01-23T12:08:43.581Z,101979.03
2023-01-23T12:11:22.199Z,101980.94
2023-01-23T12:14:26.361Z,101982.88
2023-01-23T12:17:10.602Z,101982.59
2023-01-23T12:20:15.533Z,101981.19
2023-01-23T12:23:09.906Z,101972.28
2023-01-23T12:25:40.333Z,101974.91
2023-01-23T12:28:25.332Z,101965.50
2023-01-23T12:31:08.793Z,101968.25
2023-01-23T12:33:58.402Z,101963.84
2023-01-23T12:36:30.906Z,101956.56
2023-01-23T12:39:16.072Z,101959.69
2023-01-23T12:42:03.947Z,101954.75
2023-01-23T12:44:42.634Z,101953.94
2023-01-23T12:47:17.157Z,101953.84
2023-01-23T12:50:14.819Z,101958.84
2023-01-23T12:52:49.034Z,101951.91
2023-01-23T12:55:25.901Z,101946.59
2023-01-23T12:58:08.153Z,101949.75
2023-01-23T13:00:53.868Z,101939.66
2023-01-23T13:03:37.305Z,101946.50
2023-01-23T13:06:22.713Z,101940.41
2023-01-23T13:09:17.483Z,101942.22
2023-01-23T13:12:21.715Z,101934.34
2023-01-23T13:15:12.699Z,101927.50
2023-01-23T13:17:38.937Z,101935.28
2023-01-23T13:20:37.374Z,101929.81
2023-01-23T13:23:35.223Z,101920.78
2023-01-23T13:26:17.114Z,101916.28
2023-01-23T13:28:48.298Z,101906.91
2023-01-23T13:31:40.629Z,101908.88
2023-01-23T13:34:16.360Z,101920.22
2023-01-23T13:36:45.187Z,101911.00
2023-01-23T13:39:17.564Z,101923.19
2023-01-23T13:41:49.231Z,101913.09
2023-01-23T13:44:35.737Z,101918.38
2023-01-23T14:21:52.155Z,101919.81
2023-01-23T14:24:24.258Z,101920.69
2023-01-23T14:26:53.945Z,101918.34
2023-01-23T14:29:23.557Z,101919.19
2023-01-23T14:31:51.334Z,101920.47
2023-01-23T14:34:23.613Z,101916.19
2023-01-23T14:37:04.140Z,101921.44
2023-01-23T14:39:33.262Z,101911.59
2023-01-23T14:42:02.662Z,101902.19
2023-01-23T14:44:45.492Z,101905.09
2023-01-23T14:47:21.557Z,101898.75
2023-01-23T14:49:48.181Z,101899.16
2023-01-23T14:52:24.387Z,101896.38
2023-01-23T14:54:54.422Z,101908.84
2023-01-23T14:57:23.803Z,101904.47
2023-01-23T14:59:54.684Z,101896.81
2023-01-23T15:02:33.890Z,101894.94
2023-01-23T15:05:07.341Z,101896.72
2023-01-23T15:07:35.181Z,101898.03
2023-01-23T15:10:02.329Z,101897.69
2023-01-23T15:12:28.797Z,101896.88
2023-01-23T15:14:56.404Z,101892.38
2023-01-23T15:17:23.026Z,101898.09
2023-01-23T15:19:51.808Z,101906.53
2023-01-23T15:22:21.894Z,101900.09
2023-01-23T15:24:48.507Z,101898.16
2023-01-23T15:27:32.159Z,101904.50
2023-01-23T15:30:30.412Z,101903.28
2023-01-23T15:32:58.004Z,101902.09
2023-01-23T15:35:24.937Z,101908.22
2023-01-23T15:37:55.928Z,101906.28
2023-01-23T15:40:27.588Z,101908.63
2023-01-23T15:43:03.727Z,101904.81
2023-01-23T15:45:30.118Z,101908.84
2023-01-23T15:47:56.735Z,101909.00
2023-01-23T15:50:23.483Z,101914.88
2023-01-23T15:52:52.374Z,101922.53
2023-01-23T15:55:19.870Z,101923.38
2023-01-23T15:57:46.550Z,101919.06
2023-01-23T16:00:17.845Z,101917.94
2023-01-23T16:02:55.646Z,101922.53
2023-01-23T16:05:26.992Z,101918.00
2023-01-23T16:07:54.591Z,101930.38
2023-01-23T16:10:23.711Z,101924.97
2023-01-23T16:12:52.579Z,101919.03
2023-01-23T16:15:20.367Z,101928.19
2023-01-23T16:17:47.588Z,101922.38
2023-01-23T16:20:28.640Z,101917.44
2023-01-23T16:23:01.852Z,101920.75
2023-01-23T16:25:44.433Z,101916.25
2023-01-23T16:28:14.834Z,101916.13
2023-01-23T16:30:41.391Z,101919.44
2023-01-23T16:33:08.029Z,101910.63
2023-01-23T16:35:34.442Z,101912.38
2023-01-23T16:38:01.105Z,101909.28
2023-01-23T16:40:30.469Z,101906.72
2023-01-23T16:42:57.308Z,101916.88
2023-01-23T16:45:28.479Z,101928.31
2023-01-23T16:47:55.573Z,101923.78
2023-01-23T16:50:29.382Z,101920.66
2023-01-23T16:53:06.634Z,101930.38
2023-01-23T16:55:36.594Z,101933.69
2023-01-23T16:58:05.176Z,101922.41
2023-01-23T17:00:35.070Z,101928.09
2023-01-23T17:03:07.737Z,101939.50
2023-01-23T17:05:34.134Z,101939.41
2023-01-23T17:08:00.672Z,101946.38
2023-01-23T17:10:37.835Z,101947.22
2023-01-23T17:13:11.030Z,101948.13
2023-01-23T17:15:37.724Z,101958.03
2023-01-23T17:18:04.413Z,101954.41
2023-01-23T17:20:30.787Z,101962.50
2023-01-23T17:22:57.291Z,101962.28
2023-01-23T17:25:26.558Z,101974.06
2023-01-23T17:28:11.617Z,101970.31
2023-01-23T17:30:39.908Z,101969.09
2023-01-23T17:33:13.513Z,101962.88
2023-01-23T17:35:39.961Z,101969.25
2023-01-23T17:38:06.908Z,101970.75
2023-01-23T17:40:33.655Z,101971.56
2023-01-23T17:43:00.285Z,101978.50
2023-01-23T17:45:28.201Z,101976.84
2023-01-23T17:47:55.647Z,101982.03
2023-01-23T17:50:24.979Z,101981.59
2023-01-23T17:52:53.069Z,101986.34
2023-01-23T17:55:28.250Z,101979.47
2023-01-23T17:57:54.888Z,101981.47
2023-01-23T18:00:21.926Z,101985.59
2023-01-23T18:02:58.937Z,101985.16
2023-01-23T18:05:25.744Z,101983.34
2023-01-23T18:07:54.471Z,101983.13
2023-01-23T18:10:22.070Z,101984.31
2023-01-23T18:13:10.655Z,101995.88
2023-01-23T18:15:58.885Z,101986.91
2023-01-23T18:18:37.111Z,101976.25
2023-01-23T18:21:06.350Z,101978.94
2023-01-23T18:23:37.099Z,101983.47
2023-01-23T18:26:18.687Z,101977.31
2023-01-23T18:28:59.524Z,101977.22
2023-01-23T18:32:04.542Z,101971.63
2023-01-23T18:34:55.342Z,101973.13
2023-01-23T18:37:30.632Z,101979.06
2023-01-23T18:40:21.299Z,101982.78
2023-01-23T18:43:21.551Z,101981.94
2023-01-23T18:45:48.258Z,101980.97
2023-01-23T18:48:25.015Z,101974.28
2023-01-23T18:51:10.375Z,101981.91
2023-01-23T18:54:01.707Z,101984.50
2023-01-23T18:56:34.289Z,101986.38
2023-01-23T18:59:26.122Z,101997.69
2023-01-23T19:02:15.789Z,101991.13
2023-01-23T19:05:12.314Z,101982.97
2023-01-23T19:07:39.221Z,101984.66
2023-01-23T19:10:07.737Z,101986.88
2023-01-23T19:12:40.750Z,101995.19
2023-01-23T19:15:07.161Z,101989.19
2023-01-23T19:17:37.024Z,101985.75
2023-01-23T19:20:24.689Z,101986.38
2023-01-23T19:23:06.241Z,101979.31
2023-01-23T19:25:32.941Z,101977.22
2023-01-23T19:28:00.679Z,101984.06
2023-01-23T19:30:27.478Z,101993.34
2023-01-23T19:32:53.966Z,102004.47
2023-01-23T19:35:20.965Z,102003.16
2023-01-23T19:37:47.714Z,101995.34
2023-01-23T19:40:16.039Z,102014.31
2023-01-23T19:42:54.351Z,102012.41
2023-01-23T19:45:25.317Z,102009.59
2023-01-23T19:47:53.284Z,102022.53
2023-01-23T19:50:21.392Z,102022.94
2023-01-23T19:52:48.804Z,102026.28
2023-01-23T19:55:27.209Z,102033.72
2023-01-23T19:57:56.055Z,102045.34
2023-01-23T20:00:28.022Z,102039.31
2023-01-23T20:02:54.449Z,102028.22
2023-01-23T20:05:22.162Z,102036.06
2023-01-23T20:07:52.140Z,102033.09
2023-01-23T20:10:18.632Z,102026.41
2023-01-23T20:12:51.699Z,102035.91
2023-01-23T20:15:21.611Z,102046.31
2023-01-23T20:17:48.266Z,102037.63
2023-01-23T20:20:15.291Z,102034.38
2023-01-23T20:22:42.889Z,102033.06
2023-01-23T20:25:14.442Z,102036.50
2023-01-23T20:27:41.546Z,102039.69
2023-01-23T20:30:12.868Z,102045.31
2023-01-23T20:32:39.420Z,102040.16
2023-01-23T20:35:06.066Z,102039.44
2023-01-23T20:37:32.649Z,102042.44
2023-01-23T20:39:59.109Z,102052.94
2023-01-23T20:42:25.518Z,102041.63
2023-01-23T20:44:51.898Z,102053.16
2023-01-23T20:47:18.514Z,102050.78
2023-01-23T20:49:44.861Z,102038.84
2023-01-23T20:52:29.937Z,102051.28
2023-01-23T20:54:56.579Z,102060.03
2023-01-23T20:57:23.181Z,102049.44
2023-01-23T20:59:49.575Z,102054.88
2023-01-23T21:02:25.592Z,102051.59
2023-01-23T21:04:53.131Z,102043.13
2023-01-23T21:07:22.512Z,102048.16
2023-01-23T21:09:49.175Z,102048.34
2023-01-23T21:12:15.632Z,102039.38
2023-01-23T21:14:42.091Z,102036.81
2023-01-23T21:17:09.669Z,102033.53
2023-01-23T21:19:38.832Z,102035.94
2023-01-23T21:22:06.474Z,102035.34
2023-01-23T21:24:36.735Z,102035.72
2023-01-23T21:27:04.960Z,102030.88
2023-01-23T21:29:32.555Z,102031.25
2023-01-23T21:31:59.457Z,102038.38
2023-01-23T21:34:26.223Z,102030.38
2023-01-23T21:36:53.127Z,102034.97
2023-01-23T21:39:19.968Z,102039.50
2023-01-23T21:41:46.448Z,102036.91
2023-01-23T21:44:13.166Z,102036.31
2023-01-23T21:46:39.689Z,102030.97
2023-01-23T21:49:06.128Z,102029.16
2023-01-23T21:51:32.655Z,102038.53
2023-01-23T21:53:59.113Z,102042.34
2023-01-23T21:56:25.752Z,102045.19
2023-01-23T21:58:53.011Z,102022.75
2023-01-23T22:01:41.941Z,102040.75
2023-01-23T22:04:10.374Z,102038.13
2023-01-23T22:06:38.541Z,102042.69
2023-01-23T22:09:06.672Z,102052.78
2023-01-23T22:11:33.692Z,102052.78
2023-01-23T22:14:00.478Z,102053.28
2023-01-23T22:16:46.423Z,102055.47
2023-01-23T22:19:19.223Z,102049.13
2023-01-23T22:21:46.584Z,102039.28
2023-01-23T22:24:13.649Z,102047.88
2023-01-23T22:26:40.171Z,102050.50
2023-01-23T22:29:06.973Z,102050.00
2023-01-23T22:31:33.729Z,102057.19
2023-01-23T22:34:00.181Z,102058.22
2023-01-23T22:36:26.550Z,102061.19
2023-01-23T22:38:54.212Z,102052.88
2023-01-23T22:41:21.904Z,102056.94
2023-01-23T22:43:53.196Z,102063.25
2023-01-23T22:46:19.637Z,102055.91
2023-01-23T22:48:46.118Z,102054.19
2023-01-23T22:51:24.753Z,102056.47
2023-01-23T22:53:52.783Z,102059.47
2023-01-23T22:56:19.312Z,102059.06
2023-01-23T22:58:46.787Z,102057.66
2023-01-23T23:01:13.451Z,102046.25
2023-01-23T23:03:40.565Z,102064.78
2023-01-23T23:06:08.982Z,102062.03
2023-01-23T23:08:36.149Z,102067.28
2023-01-23T23:11:11.052Z,102062.97
2023-01-23T23:13:39.556Z,102065.72
2023-01-23T23:16:18.243Z,102068.53
2023-01-23T23:18:46.466Z,102074.09
2023-01-23T23:21:14.940Z,102073.56
2023-01-23T23:23:41.544Z,102071.81
2023-01-23T23:26:10.070Z,102072.13
2023-01-23T23:28:37.402Z,102077.22
2023-01-23T23:31:04.280Z,102076.22
2023-01-23T23:33:30.901Z,102071.03
2023-01-23T23:35:57.429Z,102066.19
2023-01-23T23:38:23.993Z,102072.63
2023-01-23T23:40:55.373Z,102063.66
2023-01-23T23:43:21.823Z,102070.50
2023-01-23T23:45:56.577Z,102068.78
2023-01-23T23:48:26.448Z,102059.09
2023-01-23T23:50:53.194Z,102058.03
2023-01-23T23:53:20.058Z,102052.09
2023-01-23T23:55:46.700Z,102057.78
2023-01-23T23:58:13.168Z,102058.50
